createdAt,value
2019-06-20T00:00:40.191Z,18.12
2019-06-20T00:05:37.012Z,17.55
2019-06-20T00:08:05.833Z,17.55
2019-06-20T00:10:34.624Z,18.57
2019-06-20T00:13:06.053Z,19.73
2019-06-20T00:15:37.796Z,19.55
2019-06-20T00:18:08.168Z,20.40
2019-06-20T00:20:37.151Z,21.40
2019-06-20T00:23:06.027Z,19.57
2019-06-20T00:25:34.897Z,21.33
2019-06-20T00:28:03.703Z,20.60
2019-06-20T00:30:33.598Z,20.57
2019-06-20T00:33:02.425Z,21.90
2019-06-20T00:35:31.291Z,22.58
2019-06-20T00:38:00.080Z,22.58
2019-06-20T00:40:28.855Z,22.95
2019-06-20T00:42:57.747Z,22.93
2019-06-20T00:45:26.611Z,23.20
2019-06-20T00:47:55.634Z,21.75
2019-06-20T00:50:24.630Z,25.50
2019-06-20T00:52:53.516Z,26.50
2019-06-20T00:55:22.370Z,27.58
2019-06-20T00:57:51.283Z,27.82
2019-06-20T01:00:20.660Z,29.52
2019-06-20T01:02:49.433Z,29.82
2019-06-20T01:05:18.383Z,31.70
2019-06-20T01:07:47.165Z,33.18
2019-06-20T01:10:17.596Z,30.72
2019-06-20T01:12:46.447Z,32.08
2019-06-20T01:15:15.656Z,34.48
2019-06-20T01:17:44.430Z,33.67
2019-06-20T01:20:13.706Z,33.63
2019-06-20T01:22:42.598Z,35.03
2019-06-20T01:25:11.570Z,36.13
2019-06-20T01:27:44.252Z,34.60
2019-06-20T01:30:13.846Z,34.05
2019-06-20T01:32:42.852Z,34.23
2019-06-20T01:35:13.267Z,36.65
2019-06-20T01:37:42.089Z,35.92
2019-06-20T01:40:11.011Z,37.50
2019-06-20T01:42:39.859Z,35.48
2019-06-20T01:45:10.702Z,36.75
2019-06-20T01:47:39.486Z,35.23
2019-06-20T01:50:08.377Z,35.52
2019-06-20T01:52:37.168Z,37.13
2019-06-20T01:55:08.108Z,36.17
2019-06-20T01:57:36.978Z,33.23
2019-06-20T02:00:07.359Z,37.65
2019-06-20T02:02:36.242Z,38.45
2019-06-20T02:05:08.437Z,37.55
2019-06-20T02:07:37.360Z,40.03
2019-06-20T02:10:07.524Z,41.28
2019-06-20T02:12:36.383Z,39.20
2019-06-20T02:15:06.091Z,40.80
2019-06-20T02:17:34.988Z,41.98
2019-06-20T02:20:04.713Z,42.93
2019-06-20T02:22:33.538Z,42.08
2019-06-20T02:25:02.418Z,39.08
2019-06-20T02:27:31.281Z,42.23
2019-06-20T02:30:00.189Z,42.65
2019-06-20T02:32:28.979Z,42.67
2019-06-20T02:34:57.763Z,43.05
2019-06-20T02:37:26.644Z,45.15
2019-06-20T02:39:55.504Z,44.05
2019-06-20T02:42:25.862Z,42.88
2019-06-20T02:44:54.723Z,44.23
2019-06-20T02:47:23.550Z,42.98
2019-06-20T02:49:52.418Z,46.37
2019-06-20T02:52:21.347Z,45.25
2019-06-20T02:54:50.199Z,45.75
2019-06-20T02:57:19.121Z,43.23
2019-06-20T02:59:47.979Z,43.08
2019-06-20T03:02:16.906Z,41.20
2019-06-20T03:04:45.842Z,41.73
2019-06-20T03:07:14.784Z,40.58
2019-06-20T03:09:43.675Z,41.53
2019-06-20T03:12:12.484Z,41.60
2019-06-20T03:14:45.591Z,40.23
2019-06-20T03:17:11.816Z,38.05
2019-06-20T03:19:40.666Z,38.70
2019-06-20T03:22:09.504Z,37.13
2019-06-20T03:24:38.324Z,37.85
2019-06-20T03:27:08.929Z,36.70
2019-06-20T03:29:37.832Z,36.05
2019-06-20T03:32:06.673Z,35.33
2019-06-20T03:34:36.903Z,36.13
2019-06-20T03:37:05.806Z,38.80
2019-06-20T03:39:34.666Z,35.45
2019-06-20T03:42:03.476Z,36.85
2019-06-20T03:44:32.392Z,35.13
2019-06-20T03:47:01.194Z,33.00
2019-06-20T03:49:31.558Z,33.10
2019-06-20T03:52:00.385Z,33.92
2019-06-20T03:54:29.259Z,34.18
2019-06-20T03:56:58.087Z,34.73
2019-06-20T03:59:26.940Z,34.27
2019-06-20T04:01:55.824Z,33.70
2019-06-20T04:04:24.658Z,34.20
2019-06-20T04:06:53.508Z,34.45
2019-06-20T04:09:22.352Z,34.15
2019-06-20T04:11:51.216Z,33.63
2019-06-20T04:14:20.026Z,35.28
2019-06-20T04:16:48.914Z,34.90
2019-06-20T04:19:17.783Z,34.20
2019-06-20T04:21:46.558Z,34.73
2019-06-20T04:24:15.486Z,35.85
2019-06-20T04:26:45.799Z,35.65
2019-06-20T04:29:14.872Z,36.30
2019-06-20T04:31:45.425Z,37.17
2019-06-20T04:34:17.063Z,36.63
2019-06-20T04:36:48.057Z,36.42
2019-06-20T04:39:19.577Z,34.95
2019-06-20T04:41:46.876Z,35.68
2019-06-20T04:44:16.959Z,35.73
2019-06-20T04:47:03.746Z,34.88
2019-06-20T04:49:32.552Z,29.77
2019-06-20T04:52:01.401Z,32.28
2019-06-20T04:54:30.244Z,31.70
2019-06-20T04:56:59.081Z,32.93
2019-06-20T04:59:27.963Z,33.08
2019-06-20T05:01:56.862Z,33.05
2019-06-20T05:04:25.797Z,28.27
2019-06-20T05:06:57.623Z,29.02
2019-06-20T05:09:26.563Z,30.32
2019-06-20T05:11:56.880Z,30.52
2019-06-20T05:14:26.452Z,28.25
2019-06-20T05:16:55.330Z,28.35
2019-06-20T05:19:24.198Z,29.25
2019-06-20T05:21:53.073Z,27.85
2019-06-20T05:24:25.374Z,26.77
2019-06-20T05:26:52.418Z,28.55
2019-06-20T05:29:21.240Z,28.62
2019-06-20T05:31:51.440Z,27.60
2019-06-20T05:34:22.048Z,26.93
2019-06-20T05:36:52.521Z,28.10
2019-06-20T05:39:22.866Z,28.12
2019-06-20T05:41:51.855Z,27.62
2019-06-20T05:44:20.714Z,26.15
2019-06-20T05:46:50.295Z,27.00
2019-06-20T05:49:19.137Z,26.35
2019-06-20T05:51:47.966Z,27.27
2019-06-20T05:54:16.833Z,25.82
2019-06-20T05:56:45.742Z,24.07
2019-06-20T05:59:14.633Z,23.77
2019-06-20T06:01:45.162Z,24.30
2019-06-20T06:04:14.114Z,26.02
2019-06-20T06:06:43.012Z,26.17
2019-06-20T06:09:13.372Z,36.38
2019-06-20T06:11:42.286Z,26.42
2019-06-20T06:14:11.160Z,27.35
2019-06-20T06:16:43.867Z,28.98
2019-06-20T06:19:12.410Z,27.02
2019-06-20T06:21:41.199Z,36.23
2019-06-20T06:24:10.090Z,24.95
2019-06-20T06:26:38.972Z,26.68
2019-06-20T06:29:07.921Z,24.77
2019-06-20T06:31:36.830Z,26.07
2019-06-20T06:34:05.807Z,23.73
2019-06-20T06:36:34.584Z,24.63
2019-06-20T06:39:04.551Z,22.10
2019-06-20T06:41:34.722Z,21.00
2019-06-20T06:44:03.587Z,21.62
2019-06-20T06:46:43.592Z,20.95
2019-06-20T06:49:06.527Z,22.05
2019-06-20T06:51:38.153Z,18.62
2019-06-20T06:54:06.089Z,17.17
2019-06-20T06:56:35.872Z,18.90
2019-06-20T06:59:04.811Z,18.80
2019-06-20T07:01:35.166Z,16.23
2019-06-20T07:04:04.110Z,16.77
2019-06-20T07:06:32.991Z,16.73
2019-06-20T07:09:01.855Z,16.20
2019-06-20T07:11:30.811Z,15.63
2019-06-20T07:13:59.543Z,14.90
2019-06-20T07:16:29.395Z,13.10
2019-06-20T07:18:58.208Z,12.95
2019-06-20T07:21:28.408Z,11.63
2019-06-20T07:23:57.220Z,11.00
2019-06-20T07:26:27.512Z,9.68
2019-06-20T07:28:56.327Z,8.88
2019-06-20T07:31:25.274Z,8.70
2019-06-20T07:33:54.121Z,9.20
2019-06-20T07:36:26.281Z,9.78
2019-06-20T07:38:55.622Z,8.35
2019-06-20T07:41:24.464Z,8.98
2019-06-20T07:43:53.456Z,8.63
2019-06-20T07:46:23.094Z,9.05
2019-06-20T07:48:51.935Z,8.30
2019-06-20T07:51:20.744Z,7.83
2019-06-20T07:53:50.813Z,8.68
2019-06-20T07:56:19.539Z,8.43
2019-06-20T07:58:49.379Z,7.83
2019-06-20T08:01:18.166Z,7.85
2019-06-20T08:03:47.673Z,8.05
2019-06-20T08:06:17.616Z,7.22
2019-06-20T08:08:47.972Z,7.30
2019-06-20T08:11:16.900Z,8.35
2019-06-20T08:13:45.768Z,6.92
2019-06-20T08:16:14.696Z,7.87
2019-06-20T08:18:43.578Z,7.25
2019-06-20T08:21:12.496Z,7.40
2019-06-20T08:23:41.464Z,7.30
2019-06-20T08:26:12.675Z,9.08
2019-06-20T08:28:41.480Z,8.38
2019-06-20T08:31:10.767Z,7.85
2019-06-20T08:33:39.713Z,9.13
2019-06-20T08:36:08.549Z,7.62
2019-06-20T08:38:37.598Z,7.37
2019-06-20T08:41:06.793Z,7.20
2019-06-20T08:43:35.658Z,7.40
2019-06-20T08:46:09.932Z,7.30
2019-06-20T08:48:37.676Z,7.50
2019-06-20T08:51:06.625Z,6.62
2019-06-20T08:53:36.226Z,7.83
2019-06-20T08:56:05.597Z,7.53
2019-06-20T08:58:34.527Z,5.47
2019-06-20T09:03:37.733Z,5.22
2019-06-20T09:06:07.676Z,4.67
2019-06-20T09:08:37.238Z,4.58
2019-06-20T09:11:06.035Z,4.70
2019-06-20T09:13:34.869Z,5.70
2019-06-20T09:16:04.722Z,4.33
2019-06-20T09:18:33.643Z,5.15
2019-06-20T09:21:02.489Z,4.85
2019-06-20T09:23:31.423Z,5.17
2019-06-20T09:26:01.894Z,4.30
2019-06-20T09:28:31.179Z,3.60
2019-06-20T09:31:00.042Z,3.80
2019-06-20T09:33:30.292Z,3.27
2019-06-20T09:35:59.694Z,3.42
2019-06-20T09:38:28.763Z,3.12
2019-06-20T09:40:59.826Z,3.22
2019-06-20T09:43:30.405Z,3.37
2019-06-20T09:45:59.309Z,3.80
2019-06-20T09:48:28.215Z,3.22
2019-06-20T09:50:57.035Z,3.30
2019-06-20T09:53:25.988Z,3.10
2019-06-20T09:55:55.817Z,3.65
2019-06-20T09:58:24.822Z,2.90
2019-06-20T10:00:55.030Z,4.10
2019-06-20T10:03:26.962Z,3.62
2019-06-20T10:05:56.659Z,7.65
2019-06-20T10:08:25.736Z,4.70
2019-06-20T10:10:54.659Z,4.25
2019-06-20T10:13:23.554Z,5.62
2019-06-20T10:15:53.530Z,4.62
2019-06-20T10:18:24.012Z,3.80
2019-06-20T10:20:53.507Z,4.67
2019-06-20T10:23:22.427Z,4.75
2019-06-20T10:25:53.605Z,4.05
2019-06-20T10:28:22.541Z,6.78
2019-06-20T10:30:51.398Z,4.72
2019-06-20T10:33:20.327Z,4.28
2019-06-20T10:35:50.368Z,4.78
2019-06-20T10:38:22.315Z,4.47
2019-06-20T10:40:52.066Z,4.45
2019-06-20T10:43:21.086Z,5.08
2019-06-20T10:45:50.604Z,4.62
2019-06-20T10:48:20.358Z,5.45
2019-06-20T10:50:51.837Z,4.15
2019-06-20T10:53:22.945Z,4.95
2019-06-20T10:55:51.446Z,3.77
2019-06-20T10:58:20.987Z,4.30
2019-06-20T11:00:50.395Z,3.58
2019-06-20T11:03:19.392Z,4.40
2019-06-20T11:05:56.900Z,4.05
2019-06-20T11:08:22.719Z,3.40
2019-06-20T11:10:51.530Z,3.70
2019-06-20T11:13:20.391Z,3.00
2019-06-20T11:15:49.269Z,2.98
2019-06-20T11:18:18.120Z,2.85
2019-06-20T11:20:47.083Z,2.58
2019-06-20T11:23:16.350Z,3.15
2019-06-20T11:25:46.656Z,2.47
2019-06-20T11:28:16.900Z,2.05
2019-06-20T11:30:59.633Z,2.65
2019-06-20T11:33:40.412Z,2.60
2019-06-20T11:39:05.165Z,1.98
2019-06-20T11:44:56.017Z,2.27
2019-06-20T11:47:47.410Z,2.75
2019-06-20T11:50:40.054Z,3.15
2019-06-20T11:53:38.491Z,2.60
2019-06-20T11:58:33.111Z,2.47
2019-06-20T12:01:03.997Z,3.17
2019-06-20T12:03:32.450Z,2.50
2019-06-20T12:06:01.221Z,2.12
2019-06-20T12:08:30.113Z,2.33
2019-06-20T12:10:58.891Z,2.60
2019-06-20T12:13:29.333Z,2.90
2019-06-20T12:15:59.216Z,2.58
2019-06-20T12:18:28.046Z,2.72
2019-06-20T12:20:56.929Z,2.83
2019-06-20T12:23:25.711Z,2.60
2019-06-20T12:25:55.215Z,3.40
2019-06-20T12:28:24.655Z,2.85
2019-06-20T12:30:54.132Z,3.67
2019-06-20T12:33:24.669Z,3.75
2019-06-20T12:35:54.578Z,3.40
2019-06-20T12:38:23.476Z,3.30
2019-06-20T12:40:52.315Z,3.62
2019-06-20T12:43:21.838Z,3.95
2019-06-20T12:45:51.715Z,3.62
2019-06-20T12:48:20.703Z,3.55
2019-06-20T12:50:49.627Z,3.12
2019-06-20T12:53:18.598Z,3.17
2019-06-20T12:55:47.587Z,3.60
2019-06-20T12:58:16.560Z,3.50
2019-06-20T13:00:46.558Z,3.20
2019-06-20T13:03:15.772Z,3.45
2019-06-20T13:05:44.923Z,2.62
2019-06-20T13:08:13.916Z,2.90
2019-06-20T13:10:44.130Z,2.70
2019-06-20T13:13:13.195Z,3.22
2019-06-20T13:15:43.022Z,2.50
2019-06-20T13:18:11.873Z,2.55
2019-06-20T13:20:42.297Z,3.00
2019-06-20T13:23:11.368Z,2.20
2019-06-20T13:25:40.931Z,1.80
2019-06-20T13:28:09.911Z,2.15
2019-06-20T13:30:39.859Z,1.77
2019-06-20T13:33:09.162Z,1.92
2019-06-20T13:35:41.626Z,1.90
2019-06-20T13:38:11.371Z,2.08
2019-06-20T13:40:41.432Z,1.90
2019-06-20T13:43:10.460Z,1.98
2019-06-20T13:45:42.332Z,2.12
2019-06-20T13:48:11.386Z,1.95
2019-06-20T13:50:41.902Z,2.15
2019-06-20T13:53:10.814Z,2.00
2019-06-20T13:55:40.660Z,2.25
2019-06-20T13:58:10.071Z,1.95
2019-06-20T14:00:42.943Z,2.10
2019-06-20T14:03:12.383Z,2.10
2019-06-20T14:05:42.838Z,2.37
2019-06-20T14:08:11.841Z,2.58
2019-06-20T14:10:40.710Z,1.92
2019-06-20T14:13:18.693Z,2.08
2019-06-20T14:15:46.046Z,2.10
2019-06-20T14:18:13.329Z,2.00
2019-06-20T14:20:44.563Z,2.30
2019-06-20T14:23:12.857Z,2.30
2019-06-20T14:25:42.432Z,2.58
2019-06-20T14:28:12.166Z,2.80
2019-06-20T14:30:40.989Z,2.25
2019-06-20T14:33:09.838Z,2.87
2019-06-20T14:35:38.631Z,3.05
2019-06-20T14:38:07.398Z,3.02
2019-06-20T14:40:37.092Z,2.85
2019-06-20T14:43:07.623Z,2.85
2019-06-20T14:45:38.080Z,2.90
2019-06-20T14:48:08.528Z,2.33
2019-06-20T14:50:37.398Z,2.33
2019-06-20T14:53:06.175Z,2.62
2019-06-20T14:55:35.035Z,2.85
2019-06-20T14:58:03.880Z,2.62
2019-06-20T15:00:32.701Z,2.35
2019-06-20T15:03:01.572Z,2.80
2019-06-20T15:06:03.322Z,2.30
2019-06-20T15:11:26.043Z,2.77
2019-06-20T15:13:55.494Z,2.67
2019-06-20T15:16:24.497Z,2.35
2019-06-20T15:18:54.113Z,2.47
2019-06-20T15:21:25.312Z,2.98
2019-06-20T15:23:54.489Z,2.20
2019-06-20T15:26:27.543Z,2.33
2019-06-20T15:31:25.932Z,2.58
2019-06-20T15:33:55.150Z,2.22
2019-06-20T15:36:24.946Z,3.80
2019-06-20T15:38:54.995Z,2.80
2019-06-20T15:41:25.103Z,5.17
2019-06-20T15:43:55.996Z,3.35
2019-06-20T15:46:26.454Z,2.52
2019-06-20T15:48:55.291Z,2.60
2019-06-20T15:51:24.134Z,2.35
2019-06-20T15:53:53.151Z,2.30
2019-06-20T15:56:22.940Z,2.42
2019-06-20T15:58:51.787Z,2.25
2019-06-20T16:01:20.602Z,2.92
2019-06-20T16:03:49.400Z,2.50
2019-06-20T16:06:19.377Z,2.08
2019-06-20T16:08:48.322Z,2.42
2019-06-20T16:11:26.652Z,2.50
2019-06-20T16:13:55.488Z,2.77
2019-06-20T16:16:24.379Z,2.65
2019-06-20T16:18:54.234Z,2.98
2019-06-20T16:21:25.029Z,2.40
2019-06-20T16:23:53.921Z,1.90
2019-06-20T16:26:22.784Z,1.90
2019-06-20T16:28:51.702Z,1.98
2019-06-20T16:31:26.769Z,2.05
2019-06-20T16:33:51.567Z,2.15
2019-06-20T16:36:21.878Z,2.20
2019-06-20T16:38:50.754Z,2.05
2019-06-20T16:41:19.732Z,2.47
2019-06-20T16:43:49.544Z,2.72
2019-06-20T16:46:18.993Z,2.20
2019-06-20T16:48:47.844Z,2.17
2019-06-20T16:51:18.308Z,2.00
2019-06-20T16:53:48.988Z,1.87
2019-06-20T16:56:17.727Z,2.60
2019-06-20T16:58:46.678Z,2.47
2019-06-20T17:01:16.947Z,2.02
2019-06-20T17:03:45.837Z,1.72
2019-06-20T17:06:14.736Z,1.72
2019-06-20T17:08:43.517Z,1.82
2019-06-20T17:11:13.658Z,1.40
2019-06-20T17:13:43.651Z,2.22
2019-06-20T17:16:12.501Z,1.80
2019-06-20T17:18:41.300Z,1.85
2019-06-20T17:21:10.199Z,1.60
2019-06-20T17:23:38.999Z,1.77
2019-06-20T17:26:08.926Z,1.50
2019-06-20T17:28:41.555Z,1.98
2019-06-20T17:31:11.552Z,1.77
2019-06-20T17:33:56.802Z,1.60
2019-06-20T17:36:18.252Z,2.45
2019-06-20T17:38:44.284Z,2.00
2019-06-20T17:41:13.241Z,1.82
2019-06-20T17:43:43.625Z,1.90
2019-06-20T17:46:12.507Z,1.70
2019-06-20T17:48:41.357Z,1.90
2019-06-20T17:51:10.729Z,3.72
2019-06-20T17:53:39.577Z,6.12
2019-06-20T17:56:11.388Z,3.17
2019-06-20T17:58:40.227Z,2.60
2019-06-20T18:01:09.167Z,2.22
2019-06-20T18:03:38.018Z,1.90
2019-06-20T18:06:06.906Z,1.87
2019-06-20T18:08:35.790Z,1.47
2019-06-20T18:11:04.649Z,1.45
2019-06-20T18:13:34.613Z,1.72
2019-06-20T18:16:04.547Z,2.00
2019-06-20T18:18:33.515Z,1.90
2019-06-20T18:21:04.248Z,2.00
2019-06-20T18:23:42.482Z,1.80
2019-06-20T18:26:11.561Z,2.17
2019-06-20T18:28:40.477Z,1.70
2019-06-20T18:31:09.941Z,1.92
2019-06-20T18:33:38.838Z,1.85
2019-06-20T18:36:07.747Z,2.00
2019-06-20T18:38:36.538Z,2.35
2019-06-20T18:41:05.432Z,1.77
2019-06-20T18:43:34.358Z,1.80
2019-06-20T18:46:03.255Z,2.20
2019-06-20T18:48:32.107Z,2.55
2019-06-20T18:51:00.939Z,1.87
2019-06-20T18:53:32.323Z,1.60
2019-06-20T18:56:01.176Z,1.80
2019-06-20T18:58:30.616Z,2.25
2019-06-20T19:01:00.940Z,2.08
2019-06-20T19:03:29.805Z,1.90
2019-06-20T19:05:58.707Z,1.57
2019-06-20T19:08:28.205Z,2.08
2019-06-20T19:10:58.559Z,1.82
2019-06-20T19:13:29.963Z,1.92
2019-06-20T19:16:00.720Z,1.80
2019-06-20T19:18:32.115Z,1.95
2019-06-20T19:21:00.963Z,1.52
2019-06-20T19:23:29.885Z,2.22
2019-06-20T19:25:58.747Z,1.80
2019-06-20T19:28:27.633Z,2.00
2019-06-20T19:30:57.173Z,2.20
2019-06-20T19:33:26.055Z,2.37
2019-06-20T19:35:54.891Z,1.65
2019-06-20T19:38:23.722Z,1.72
2019-06-20T19:40:53.040Z,1.62
2019-06-20T19:43:21.993Z,1.80
2019-06-20T19:45:50.973Z,1.98
2019-06-20T19:48:21.791Z,2.05
2019-06-20T19:50:52.138Z,1.65
2019-06-20T19:53:22.364Z,1.80
2019-06-20T19:55:53.646Z,2.00
2019-06-20T19:58:26.236Z,1.80
2019-06-20T20:00:55.175Z,1.65
2019-06-20T20:03:24.011Z,1.77
2019-06-20T20:05:58.005Z,2.00
2019-06-20T20:08:25.675Z,2.30
2019-06-20T20:10:55.759Z,2.40
2019-06-20T20:13:28.535Z,3.02
2019-06-20T20:15:57.353Z,3.22
2019-06-20T20:18:26.262Z,1.95
2019-06-20T20:20:55.070Z,1.80
2019-06-20T20:23:26.928Z,3.15
2019-06-20T20:25:57.831Z,2.05
2019-06-20T20:28:27.383Z,1.77
2019-06-20T20:30:56.129Z,2.65
2019-06-20T20:33:25.008Z,1.70
2019-06-20T20:35:53.818Z,1.90
2019-06-20T20:38:22.679Z,2.12
2019-06-20T20:40:53.174Z,2.67
2019-06-20T20:43:22.055Z,2.60
2019-06-20T20:45:53.171Z,2.30
2019-06-20T20:48:21.957Z,2.70
2019-06-20T20:50:50.786Z,2.80
2019-06-20T20:53:19.564Z,2.25
2019-06-20T20:55:48.455Z,3.30
2019-06-20T20:58:17.409Z,2.10
2019-06-20T21:00:55.525Z,1.82
2019-06-20T21:03:24.351Z,2.00
2019-06-20T21:05:53.195Z,1.95
2019-06-20T21:08:22.101Z,2.83
2019-06-20T21:10:50.961Z,2.37
2019-06-20T21:13:22.083Z,3.50
2019-06-20T21:15:50.971Z,2.40
2019-06-20T21:18:19.875Z,2.62
2019-06-20T21:20:48.709Z,2.60
2019-06-20T21:23:17.660Z,2.22
2019-06-20T21:25:48.043Z,2.12
2019-06-20T21:28:16.999Z,2.40
2019-06-20T21:30:46.023Z,2.17
2019-06-20T21:33:14.773Z,2.20
2019-06-20T21:35:44.364Z,2.22
2019-06-20T21:38:13.317Z,2.60
2019-06-20T21:40:42.180Z,1.90
2019-06-20T21:43:11.013Z,1.80
2019-06-20T21:45:39.865Z,2.70
2019-06-20T21:48:09.030Z,2.02
2019-06-20T21:50:37.910Z,1.95
2019-06-20T21:53:06.678Z,2.35
2019-06-20T21:55:38.159Z,2.40
2019-06-20T21:58:07.003Z,2.15
2019-06-20T22:00:40.481Z,2.10
2019-06-20T22:03:10.463Z,2.20
2019-06-20T22:05:40.901Z,2.08
2019-06-20T22:08:29.963Z,1.90
2019-06-20T22:10:58.779Z,2.02
2019-06-20T22:13:30.339Z,1.70
2019-06-20T22:15:59.796Z,2.02
2019-06-20T22:18:28.567Z,2.00
2019-06-20T22:20:57.350Z,1.90
2019-06-20T22:23:28.915Z,3.42
2019-06-20T22:25:58.198Z,2.20
2019-06-20T22:28:28.533Z,2.02
2019-06-20T22:31:00.245Z,1.75
2019-06-20T22:33:29.050Z,1.90
2019-06-20T22:35:58.505Z,1.85
2019-06-20T22:38:27.555Z,2.45
2019-06-20T22:40:58.887Z,1.65
2019-06-20T22:43:27.666Z,1.95
2019-06-20T22:45:56.598Z,1.77
2019-06-20T22:48:25.388Z,2.37
2019-06-20T22:50:54.310Z,2.35
2019-06-20T22:53:23.098Z,2.80
2019-06-20T22:55:52.406Z,1.90
2019-06-20T22:58:23.863Z,2.17
2019-06-20T23:00:52.676Z,1.92
2019-06-20T23:03:23.876Z,1.67
2019-06-20T23:05:52.668Z,2.10
2019-06-20T23:08:21.537Z,2.25
2019-06-20T23:10:50.395Z,2.10
2019-06-20T23:13:19.850Z,1.80
2019-06-20T23:15:48.751Z,2.05
2019-06-20T23:18:17.620Z,1.55
2019-06-20T23:21:03.579Z,2.02
2019-06-20T23:23:17.004Z,2.22
2019-06-20T23:25:48.485Z,2.17
2019-06-20T23:28:23.856Z,1.90
2019-06-20T23:30:52.475Z,1.92
2019-06-20T23:33:21.295Z,1.90
2019-06-20T23:35:50.083Z,2.02
2019-06-20T23:38:18.993Z,1.80
2019-06-20T23:40:47.835Z,2.22
2019-06-20T23:43:17.268Z,2.33
2019-06-20T23:45:46.066Z,2.00
2019-06-20T23:48:15.067Z,2.60
2019-06-20T23:50:43.917Z,2.50
2019-06-20T23:53:14.419Z,2.00
2019-06-20T23:55:43.273Z,2.30
2019-06-20T23:58:12.127Z,2.77
